Time;durP1;ratioP1;P1;durP2;ratioP2;P2;SDS_P1;SDS_P2;PMS_P1;PMS_P2;Temp;Humidity;BMP_temperature;BMP_pressure;BME280_temperature;BME280_humidity;BME280_pressure;Samples;Min_cycle;Max_cycle;Signal;HPM_P1;HPM_P2
2022/06/23 00:01:43;;;;;;;0.73;0.30;;;;;;;30.16;35.71;101140.44;4930304;29;20047;-72
2022/06/23 00:04:14;;;;;;;0.32;0.20;;;;;;;30.14;35.79;101131.63;4930996;29;20047;-73
2022/06/23 00:06:47;;;;;;;0.88;0.32;;;;;;;30.09;35.34;101128.31;4933378;28;20052;-74
2022/06/23 00:09:38;;;;;;;1.05;0.28;;;;;;;30.00;35.72;101131.41;4934716;29;20460;-73
2022/06/23 00:12:24;;;;;;;3.95;0.30;;;;;;;29.94;35.22;101131.69;4927337;29;20051;-72
2022/06/23 00:14:55;;;;;;;0.45;0.20;;;;;;;29.82;35.15;101125.97;4927378;29;20490;-72
2022/06/23 00:17:25;;;;;;;;;;;;;;;29.75;34.40;101118.31;4932427;29;20047;-72
2022/06/23 00:19:54;;;;;;;4.60;0.30;;;;;;;29.58;35.71;101117.25;4927818;29;19927;-72
2022/06/23 00:22:28;;;;;;;0.70;0.55;;;;;;;29.43;34.53;101123.25;4925825;29;20120;-72
2022/06/23 00:25:00;;;;;;;1.15;0.40;;;;;;;29.33;36.22;101120.13;4923583;29;20067;-71
2022/06/23 00:27:29;;;;;;;;;;;;;;;29.29;36.63;101110.50;4923598;29;20486;-73
2022/06/23 00:30:00;;;;;;;1.88;0.30;;;;;;;29.29;37.31;101120.31;4924120;29;19948;-73
2022/06/23 00:32:30;;;;;;;0.85;0.20;;;;;;;29.22;36.06;101104.56;4928623;29;20070;-73
2022/06/23 00:35:01;;;;;;;1.27;0.30;;;;;;;29.21;36.13;101102.00;4920347;29;20051;-73
2022/06/23 00:37:32;;;;;;;0.35;0.20;;;;;;;29.17;37.27;101101.25;4930027;29;20493;-74
2022/06/23 00:40:02;;;;;;;0.10;0.10;;;;;;;29.13;37.72;101104.97;4937770;29;20110;-73
2022/06/23 00:42:35;;;;;;;1.08;0.28;;;;;;;29.08;34.93;101103.44;4934539;29;20058;-72
2022/06/23 00:45:14;;;;;;;1.67;0.22;;;;;;;28.99;35.85;101107.31;4934288;29;20126;-73
2022/06/23 00:47:59;;;;;;;0.50;0.20;;;;;;;28.91;34.96;101105.00;4928349;29;20143;-72
2022/06/23 00:50:31;;;;;;;1.33;0.20;;;;;;;28.82;34.74;101108.91;4933635;29;20497;-73
2022/06/23 00:53:06;;;;;;;0.45;0.28;;;;;;;28.79;37.29;101105.47;4933182;29;20051;-73
2022/06/23 00:55:45;;;;;;;1.55;0.20;;;;;;;28.68;33.81;101102.38;4933937;29;21235;-73
2022/06/23 00:58:23;;;;;;;0.43;0.10;;;;;;;28.61;34.99;101101.75;4935053;29;20055;-73
2022/06/23 01:00:54;;;;;;;2.10;0.30;;;;;;;28.58;32.78;101097.44;4931776;29;20052;-73
2022/06/23 01:03:29;;;;;;;0.80;0.32;;;;;;;28.52;33.23;101097.69;4934571;29;20075;-73
2022/06/23 01:06:06;;;;;;;1.48;0.20;;;;;;;28.41;33.50;101100.75;4936032;28;20056;-73
2022/06/23 01:08:47;;;;;;;1.13;0.10;;;;;;;28.25;34.71;101090.78;4933296;29;20103;-73
2022/06/23 01:11:24;;;;;;;0.65;0.17;;;;;;;28.03;33.00;101098.69;4933106;29;20047;-72
2022/06/23 01:14:02;;;;;;;0.20;0.20;;;;;;;27.92;33.44;101104.41;4926189;29;20059;-72
2022/06/23 01:16:40;;;;;;;0.82;0.30;;;;;;;27.69;32.77;101105.22;4924469;29;20046;-72
2022/06/23 01:19:40;;;;;;;0.10;0.10;;;;;;;27.60;34.05;101100.25;4926855;29;20058;-74
2022/06/23 01:22:18;;;;;;;1.65;0.30;;;;;;;27.55;35.45;101100.41;4926532;29;20073;-72
2022/06/23 01:24:56;;;;;;;0.65;0.30;;;;;;;27.50;35.23;101102.38;4923056;29;20183;-75
2022/06/23 01:27:32;;;;;;;0.30;0.30;;;;;;;27.31;35.72;101095.06;4930545;29;20052;-74
2022/06/23 01:30:09;;;;;;;1.23;0.38;;;;;;;27.31;36.44;101103.03;4921915;29;20494;-74
2022/06/23 01:32:43;;;;;;;0.43;0.40;;;;;;;27.27;36.67;101093.41;4930513;29;20059;-75
2022/06/23 01:35:18;;;;;;;0.77;0.30;;;;;;;27.17;35.87;101097.28;4919276;29;20626;-76
2022/06/23 01:37:53;;;;;;;0.98;0.30;;;;;;;27.06;35.58;101100.28;4929489;29;20044;-77
2022/06/23 01:40:24;;;;;;;1.38;0.22;;;;;;;26.92;34.63;101102.56;4931567;29;20056;-75
2022/06/23 01:43:00;;;;;;;0.80;0.30;;;;;;;26.86;37.08;101106.25;4925087;29;20058;-75
2022/06/23 01:45:39;;;;;;;0.45;0.15;;;;;;;26.70;34.58;101108.53;4932953;29;20074;-76
2022/06/23 01:48:14;;;;;;;0.22;0.20;;;;;;;26.65;36.62;101110.47;4918487;29;20146;-75
2022/06/23 01:50:50;;;;;;;1.55;0.32;;;;;;;26.60;37.14;101114.22;4933234;29;20565;-76
2022/06/23 01:53:27;;;;;;;1.55;0.20;;;;;;;26.45;36.07;101100.47;4925630;29;20057;-77
2022/06/23 01:56:06;;;;;;;1.42;0.30;;;;;;;26.41;37.04;101116.50;4928966;29;20657;-77
2022/06/23 01:58:49;;;;;;;1.50;0.43;;;;;;;26.24;37.18;101106.44;4927803;29;20048;-76
2022/06/23 02:01:24;;;;;;;3.65;0.50;;;;;;;26.16;37.29;101103.13;4922788;29;20062;-77
2022/06/23 02:04:01;;;;;;;1.05;0.40;;;;;;;25.99;37.76;101104.50;4922391;29;20047;-78
2022/06/23 02:06:39;;;;;;;1.73;0.40;;;;;;;25.91;38.49;101101.22;4935134;28;20087;-76
2022/06/23 02:09:18;;;;;;;1.05;0.50;;;;;;;25.76;36.88;101107.78;4923194;29;20142;-74
2022/06/23 02:11:50;;;;;;;1.55;0.63;;;;;;;25.68;38.25;101105.34;4922462;29;20052;-75
2022/06/23 02:14:43;;;;;;;1.63;0.68;;;;;;;25.63;39.91;101107.25;4922141;29;20103;-80
2022/06/23 02:17:25;;;;;;;2.47;0.80;;;;;;;25.52;39.49;101101.38;4932190;29;20055;-77
2022/06/23 02:19:56;;;;;;;2.63;0.52;;;;;;;25.42;38.28;101108.69;4932804;29;20118;-74
2022/06/23 02:22:31;;;;;;;12.23;0.77;;;;;;;25.34;39.01;101112.47;4941457;29;20040;-77
2022/06/23 02:25:06;;;;;;;0.47;0.40;;;;;;;25.27;39.58;101111.75;4932810;29;20294;-77
2022/06/23 02:27:45;;;;;;;1.77;0.50;;;;;;;25.13;40.24;101114.72;4931338;29;20043;-79
2022/06/23 02:30:18;;;;;;;1.20;0.38;;;;;;;25.04;38.58;101120.25;4932553;29;20051;-77
2022/06/23 02:33:01;;;;;;;0.77;0.40;;;;;;;24.96;39.86;101119.56;4928992;29;20055;-78
2022/06/23 02:35:36;;;;;;;1.83;0.40;;;;;;;24.87;39.19;101121.50;4928966;29;20044;-79
2022/06/23 02:38:10;;;;;;;4.78;0.38;;;;;;;24.80;40.44;101121.69;4939462;29;20063;-80
2022/06/23 02:40:42;;;;;;;0.88;0.30;;;;;;;24.76;40.88;101123.56;4947380;29;20106;-77
2022/06/23 02:43:21;;;;;;;;;;;;;;;24.72;41.75;101127.19;4933238;29;20051;-76
2022/06/23 02:46:15;;;;;;;1.13;0.40;;;;;;;24.63;40.97;101143.28;4919269;29;19946;-74
2022/06/23 02:49:02;;;;;;;1.50;0.70;;;;;;;24.51;38.99;101143.53;4921709;29;20055;-75
2022/06/23 02:51:46;;;;;;;1.55;0.65;;;;;;;24.33;40.82;101148.31;4926742;29;20043;-76
2022/06/23 02:54:39;;;;;;;1.45;0.50;;;;;;;24.15;40.00;101136.34;4928693;29;20054;-76
2022/06/23 02:57:35;;;;;;;1.08;0.40;;;;;;;23.99;38.49;101146.34;4929568;29;20541;-79
2022/06/23 03:00:14;;;;;;;1.27;0.50;;;;;;;23.87;39.01;101149.25;4918067;29;20157;-75
2022/06/23 03:02:50;;;;;;;4.38;0.40;;;;;;;23.80;40.42;101155.53;4928827;29;20075;-78
2022/06/23 03:05:30;;;;;;;2.40;0.40;;;;;;;23.75;40.71;101167.94;4932057;28;20051;-77
2022/06/23 03:08:04;;;;;;;0.82;0.43;;;;;;;23.63;40.22;101163.72;4926949;29;20574;-77
2022/06/23 03:10:39;;;;;;;0.93;0.32;;;;;;;23.51;41.20;101158.69;4935134;29;20051;-77
2022/06/23 03:13:16;;;;;;;3.22;0.40;;;;;;;23.36;42.92;101162.44;4928994;29;20043;-76
2022/06/23 03:15:54;;;;;;;1.13;0.50;;;;;;;23.26;41.52;101174.06;4931243;29;20501;-76
2022/06/23 03:18:27;;;;;;;0.57;0.32;;;;;;;23.19;41.12;101163.59;4924027;29;20565;-78
2022/06/23 03:21:01;;;;;;;0.57;0.30;;;;;;;23.11;40.61;101170.78;4927485;29;20039;-78
2022/06/23 03:23:38;;;;;;;0.95;0.50;;;;;;;23.06;39.65;101174.38;4919983;29;20502;-78
2022/06/23 03:26:19;;;;;;;0.50;0.32;;;;;;;22.91;40.37;101186.88;4920770;29;20506;-80
2022/06/23 03:28:51;;;;;;;2.10;0.40;;;;;;;22.78;40.29;101188.81;4924450;29;20494;-78
2022/06/23 03:31:27;;;;;;;3.58;0.50;;;;;;;22.64;39.69;101179.38;4933344;29;20052;-76
2022/06/23 03:34:00;;;;;;;1.80;0.40;;;;;;;22.51;40.53;101182.16;4919495;29;20111;-76
2022/06/23 03:36:36;;;;;;;0.30;0.30;;;;;;;22.44;40.52;101184.91;4927461;29;20055;-76
2022/06/23 03:42:11;;;;;;;0.35;0.30;;;;;;;22.23;39.31;101186.91;4925069;29;20637;-79
2022/06/23 03:44:49;;;;;;;1.55;0.40;;;;;;;22.08;39.61;101174.75;4924532;29;20047;-75
2022/06/23 03:47:25;;;;;;;1.67;0.45;;;;;;;21.96;40.38;101190.69;4929854;29;20533;-77
2022/06/23 03:49:59;;;;;;;0.45;0.25;;;;;;;21.89;40.10;101195.16;4931420;29;20058;-76
2022/06/23 03:52:37;;;;;;;0.60;0.30;;;;;;;21.83;39.93;101192.59;4930747;29;20066;-76
2022/06/23 03:55:18;;;;;;;1.73;0.40;;;;;;;21.76;40.58;101198.78;4929434;29;20466;-77
2022/06/23 03:57:53;;;;;;;0.57;0.30;;;;;;;21.69;38.85;101202.38;4930825;29;20489;-78
2022/06/23 04:00:33;;;;;;;0.93;0.25;;;;;;;21.60;38.84;101192.81;4929080;29;20446;-77
2022/06/23 04:03:18;;;;;;;1.52;0.30;;;;;;;21.52;39.99;101199.91;4923814;29;20055;-77
2022/06/23 04:06:30;;;;;;;0.90;0.30;;;;;;;21.39;36.96;101196.44;4919327;28;20135;-75
2022/06/23 04:09:06;;;;;;;0.38;0.25;;;;;;;21.23;37.69;101198.31;4921459;29;20052;-77
2022/06/23 04:11:45;;;;;;;0.50;0.32;;;;;;;21.15;37.75;101205.41;4925396;29;20044;-75
2022/06/23 04:14:23;;;;;;;0.50;0.25;;;;;;;21.06;38.08;101203.72;4932102;29;20075;-76
2022/06/23 04:16:59;;;;;;;1.35;0.40;;;;;;;20.97;36.94;101211.66;4932337;29;20093;-77
2022/06/23 04:19:32;;;;;;;1.10;0.30;;;;;;;20.74;34.91;101209.19;4928414;29;20498;-74
2022/06/23 04:22:07;;;;;;;2.50;0.47;;;;;;;20.65;37.54;101225.88;4929248;29;20640;-74
2022/06/23 04:24:43;;;;;;;1.17;0.45;;;;;;;20.56;37.11;101231.16;4924146;29;20487;-77
2022/06/23 04:27:19;;;;;;;1.58;0.40;;;;;;;20.53;37.49;101223.28;4929752;29;20084;-76
2022/06/23 04:29:53;;;;;;;1.08;0.47;;;;;;;20.48;38.42;101232.94;4920168;29;20052;-78
2022/06/23 04:32:25;;;;;;;2.55;1.00;;;;;;;20.41;35.96;101225.94;4926071;29;20052;-76
2022/06/23 04:34:59;;;;;;;0.68;0.47;;;;;;;20.35;36.92;101234.72;4925135;29;20090;-75
2022/06/23 04:37:36;;;;;;;1.20;0.45;;;;;;;20.24;36.86;101234.75;4927258;29;20119;-75
2022/06/23 04:40:24;;;;;;;2.42;0.63;;;;;;;20.15;38.42;101229.50;4932573;29;20060;-76
2022/06/23 04:42:57;;;;;;;0.73;0.40;;;;;;;20.03;38.85;101234.81;4922407;29;20131;-75
2022/06/23 04:45:38;;;;;;;3.20;0.50;;;;;;;19.91;37.76;101243.59;4932106;29;20048;-75
2022/06/23 04:48:19;;;;;;;1.40;0.60;;;;;;;19.83;38.47;101250.56;4932598;29;20545;-75
2022/06/23 04:50:55;;;;;;;2.38;0.40;;;;;;;19.74;38.30;101248.81;4930314;29;20458;-75
2022/06/23 04:53:38;;;;;;;0.88;0.50;;;;;;;19.69;39.72;101261.09;4932955;29;20589;-73
2022/06/23 04:56:34;;;;;;;2.53;0.40;;;;;;;19.55;38.49;101253.19;4931975;29;20048;-74
2022/06/23 04:59:13;;;;;;;1.38;0.68;;;;;;;19.45;39.44;101260.19;4924739;29;20557;-73
2022/06/23 05:01:47;;;;;;;2.33;0.50;;;;;;;19.33;39.04;101257.53;4933176;29;20099;-72
2022/06/23 05:04:21;;;;;;;3.65;0.60;;;;;;;19.26;38.42;101263.63;4932060;29;20059;-73
2022/06/23 05:06:59;;;;;;;1.10;0.32;;;;;;;19.22;38.88;101272.41;4623138;28;8851197;-73
2022/06/23 05:09:34;;;;;;;2.53;0.65;;;;;;;19.11;37.26;101272.38;4923335;29;20473;-75
2022/06/23 05:12:16;;;;;;;2.92;0.63;;;;;;;19.05;37.26;101275.81;4930034;29;20056;-75
2022/06/23 05:14:52;;;;;;;1.80;0.63;;;;;;;18.96;39.30;101270.56;4920728;29;20131;-74
2022/06/23 05:17:23;;;;;;;3.47;1.00;;;;;;;18.96;39.97;101286.28;4924645;29;20091;-73
2022/06/23 05:19:56;;;;;;;2.05;0.50;;;;;;;18.90;39.42;101288.00;4920008;29;20513;-75
2022/06/23 05:22:29;;;;;;;1.63;0.65;;;;;;;18.83;40.77;101288.00;4936138;29;20130;-75
2022/06/23 05:25:01;;;;;;;4.38;0.70;;;;;;;18.77;40.55;101287.97;4940594;29;20059;-75
2022/06/23 05:27:35;;;;;;;2.35;0.38;;;;;;;18.67;38.89;101295.75;4919153;29;20103;-74
2022/06/23 05:30:26;;;;;;;3.55;1.23;;;;;;;18.57;40.51;101303.56;4929085;29;20051;-75
2022/06/23 05:32:59;;;;;;;2.20;0.60;;;;;;;18.47;41.55;101296.53;4920709;29;20048;-73
2022/06/23 05:35:32;;;;;;;4.88;0.77;;;;;;;18.37;38.52;101302.56;4932994;29;20122;-72
2022/06/23 05:38:06;;;;;;;4.45;0.88;;;;;;;18.28;39.69;101313.00;4927147;29;20060;-71
2022/06/23 05:40:43;;;;;;;1.58;0.57;;;;;;;18.16;38.06;101308.56;4921124;29;20048;-70
2022/06/23 05:43:13;;;;;;;3.67;0.40;;;;;;;18.04;38.04;101314.56;4925411;29;20059;-72
2022/06/23 05:45:44;;;;;;;1.27;0.52;;;;;;;17.97;38.34;101320.63;4933273;29;20056;-73
2022/06/23 05:48:18;;;;;;;2.03;0.30;;;;;;;17.92;38.96;101324.97;4946334;29;20059;-71
2022/06/23 05:50:52;;;;;;;1.70;0.50;;;;;;;17.86;39.75;101320.53;4922459;29;20055;-74
2022/06/23 05:53:26;;;;;;;2.33;0.40;;;;;;;17.81;38.28;101319.63;4923848;29;20706;-72
2022/06/23 05:55:58;;;;;;;3.13;0.82;;;;;;;17.76;38.64;101318.69;4923043;29;20048;-72
2022/06/23 05:58:35;;;;;;;1.35;0.55;;;;;;;17.68;41.17;101321.22;4923599;29;20048;-73
2022/06/23 06:01:12;;;;;;;1.05;0.57;;;;;;;17.58;38.29;101324.63;4931751;29;20114;-73
2022/06/23 06:03:43;;;;;;;2.17;0.93;;;;;;;17.49;38.94;101329.75;4924938;29;20459;-72
2022/06/23 06:06:19;;;;;;;2.88;0.57;;;;;;;17.47;39.57;101336.72;4925608;28;20055;-74
2022/06/23 06:11:41;;;;;;;1.33;0.60;;;;;;;17.34;39.10;101328.75;4926791;29;20070;-72
2022/06/23 06:14:14;;;;;;;0.73;0.30;;;;;;;17.29;40.64;101330.41;4933512;29;20047;-71
2022/06/23 06:16:42;;;;;;;4.85;0.68;;;;;;;17.23;41.10;101332.97;4940325;29;20054;-74
2022/06/23 06:19:15;;;;;;;3.35;0.60;;;;;;;17.20;41.57;101326.81;4922981;29;20055;-74
2022/06/23 06:21:44;;;;;;;3.38;0.40;;;;;;;17.14;41.15;101330.25;4923178;29;20047;-72
2022/06/23 06:24:28;;;;;;;1.52;0.52;;;;;;;17.04;40.92;101334.50;4918157;29;20074;-73
2022/06/23 06:26:58;;;;;;;3.97;0.73;;;;;;;16.94;40.78;101345.69;4917192;29;20577;-73
2022/06/23 06:29:33;;;;;;;1.17;0.40;;;;;;;16.88;40.90;101349.13;4927038;29;20047;-73
2022/06/23 06:32:13;;;;;;;2.00;0.50;;;;;;;16.79;40.08;101346.38;4925707;29;20103;-73
2022/06/23 06:34:49;;;;;;;0.77;0.40;;;;;;;16.74;40.73;101342.78;4932410;29;20498;-74
2022/06/23 06:37:20;;;;;;;3.95;0.63;;;;;;;16.68;42.78;101340.09;4925497;29;20047;-71
2022/06/23 06:39:52;;;;;;;2.45;0.40;;;;;;;16.61;41.32;101338.25;4926956;29;20517;-72
2022/06/23 06:42:26;;;;;;;2.58;0.95;;;;;;;16.54;43.03;101343.38;4931883;29;20046;-73
2022/06/23 06:44:58;;;;;;;4.32;0.70;;;;;;;16.47;43.23;101352.00;4932351;29;20044;-72
2022/06/23 06:47:29;;;;;;;1.73;0.50;;;;;;;16.39;42.42;101351.00;4922133;29;20051;-72
2022/06/23 06:50:02;;;;;;;2.33;0.50;;;;;;;16.36;43.67;101352.69;4919093;29;20521;-71
2022/06/23 06:52:31;;;;;;;7.88;0.77;;;;;;;16.29;43.81;101364.78;4930442;29;20048;-74
2022/06/23 06:55:05;;;;;;;1.17;0.50;;;;;;;16.23;43.76;101365.53;4931027;29;20106;-73
2022/06/23 06:57:39;;;;;;;1.35;0.52;;;;;;;16.20;44.07;101375.06;4932746;29;20044;-72
2022/06/23 07:00:16;;;;;;;2.58;0.40;;;;;;;16.12;44.09;101365.34;4924616;29;20733;-73
2022/06/23 07:02:49;;;;;;;1.83;0.40;;;;;;;16.07;43.86;101364.41;4929994;29;20524;-72
2022/06/23 07:05:26;;;;;;;2.33;0.57;;;;;;;15.96;44.95;101371.19;4919287;28;20056;-73
2022/06/23 07:08:05;;;;;;;2.22;0.40;;;;;;;15.85;43.98;101372.72;4927250;29;20056;-73
2022/06/23 07:10:38;;;;;;;2.33;0.70;;;;;;;15.78;44.46;101379.59;4914845;29;20066;-72
2022/06/23 07:13:11;;;;;;;0.60;0.40;;;;;;;15.73;44.49;101377.72;4930801;29;20048;-72
2022/06/23 07:15:47;;;;;;;0.43;0.20;;;;;;;15.59;46.41;101359.19;4938138;29;20050;-73
2022/06/23 07:18:21;;;;;;;1.83;0.40;;;;;;;15.65;46.40;101385.41;4931528;29;20588;-72
2022/06/23 07:20:57;;;;;;;4.35;0.50;;;;;;;15.61;47.37;101379.22;4926137;29;20078;-72
2022/06/23 07:23:31;;;;;;;5.78;0.63;;;;;;;15.54;45.17;101373.88;4939975;29;20122;-72
2022/06/23 07:26:12;;;;;;;3.40;0.60;;;;;;;15.52;46.00;101383.41;4930250;29;20094;-72
2022/06/23 07:28:46;;;;;;;2.50;0.55;;;;;;;15.48;45.09;101382.44;4931145;29;20051;-72
2022/06/23 07:31:20;;;;;;;0.82;0.40;;;;;;;15.43;45.49;101373.66;4928554;29;20472;-72
2022/06/23 07:33:55;;;;;;;1.13;0.50;;;;;;;15.39;45.83;101370.13;4921725;29;20104;-72
2022/06/23 07:36:28;;;;;;;3.28;0.77;;;;;;;15.39;46.49;101374.44;4931259;29;20048;-71
2022/06/23 07:39:04;;;;;;;3.47;0.80;;;;;;;15.22;47.13;101372.38;4931736;29;20051;-73
2022/06/23 07:41:40;;;;;;;2.85;0.57;;;;;;;15.20;46.86;101384.50;4924971;29;20055;-73
2022/06/23 07:44:15;;;;;;;2.10;0.40;;;;;;;15.17;47.34;101376.63;4929339;29;20052;-71
2022/06/23 07:46:45;;;;;;;2.67;0.70;;;;;;;15.15;48.23;101386.13;4932784;29;20572;-71
2022/06/23 07:49:20;;;;;;;1.77;0.50;;;;;;;15.13;48.16;101380.00;4928590;29;20576;-71
2022/06/23 07:51:49;;;;;;;1.58;0.52;;;;;;;15.09;46.92;101378.19;4927145;29;20056;-71
2022/06/23 07:54:20;;;;;;;1.55;0.40;;;;;;;15.03;46.85;101378.06;4934540;29;20542;-72
2022/06/23 07:56:50;;;;;;;3.28;0.45;;;;;;;15.04;48.34;101385.03;4929625;29;20549;-71
2022/06/23 07:59:21;;;;;;;3.80;0.63;;;;;;;15.02;49.32;101389.31;4932814;29;20107;-72
2022/06/23 08:01:57;;;;;;;4.00;0.55;;;;;;;14.97;48.44;101383.16;4921357;29;20111;-71
2022/06/23 08:04:31;;;;;;;1.15;0.32;;;;;;;14.91;49.38;101389.09;4930317;29;20687;-71
2022/06/23 08:07:02;;;;;;;2.38;0.45;;;;;;;14.88;49.37;101405.53;4927467;28;20567;-71
2022/06/23 08:09:34;;;;;;;3.37;0.60;;;;;;;14.84;50.46;101403.75;4927882;29;20048;-71
2022/06/23 08:16:49;;;;;;;2.97;0.47;;;;;;;14.77;50.66;101414.84;4931186;29;20426;-72
2022/06/23 08:17:44;;;;;;;;;;;;;;;14.71;51.13;101406.03;4923804;29;20052;-73
2022/06/23 08:20:16;;;;;;;4.95;0.70;;;;;;;14.66;52.02;101408.53;4930284;29;19930;-72
2022/06/23 08:22:46;;;;;;;2.80;0.68;;;;;;;14.62;50.79;101407.56;4925842;29;20059;-72
2022/06/23 08:25:17;;;;;;;2.70;0.60;;;;;;;14.63;51.08;101411.03;4929400;29;20130;-72
2022/06/23 08:27:47;;;;;;;4.63;0.63;;;;;;;14.60;51.23;101398.84;4924823;29;20051;-72
2022/06/23 08:30:17;;;;;;;4.07;0.50;;;;;;;14.58;52.01;101395.31;4926488;29;20158;-71
2022/06/23 08:32:51;;;;;;;2.92;0.50;;;;;;;14.54;51.69;101397.78;4930233;29;20494;-72
2022/06/23 08:35:26;;;;;;;1.77;0.32;;;;;;;14.48;52.27;101402.81;4927629;29;20052;-71
2022/06/23 08:37:59;;;;;;;2.53;0.40;;;;;;;14.41;52.58;101415.72;4929848;29;20181;-72
2022/06/23 08:40:41;;;;;;;4.50;0.77;;;;;;;14.34;52.66;101413.81;4931011;29;20508;-73
2022/06/23 08:43:19;;;;;;;1.88;0.50;;;;;;;14.28;53.50;101415.38;4922256;29;20521;-73
2022/06/23 08:45:57;;;;;;;2.88;0.80;;;;;;;14.24;53.12;101428.28;4929829;29;20490;-72
2022/06/23 08:48:33;;;;;;;3.15;0.65;;;;;;;14.19;53.10;101416.03;4930258;29;20103;-72
2022/06/23 08:51:05;;;;;;;2.15;0.68;;;;;;;14.13;55.04;101410.66;4927745;29;20039;-72
2022/06/23 08:53:42;;;;;;;2.72;0.35;;;;;;;14.06;53.76;101419.16;4932291;29;20043;-72
2022/06/23 08:56:17;;;;;;;3.03;0.65;;;;;;;14.03;57.00;101420.81;4930484;29;20044;-74
2022/06/23 08:58:50;;;;;;;1.15;0.40;;;;;;;13.98;55.72;101426.75;4929880;29;20061;-70
2022/06/23 09:01:24;;;;;;;0.50;0.38;;;;;;;13.96;55.33;101426.72;4926645;29;20051;-70
2022/06/23 09:04:02;;;;;;;2.35;0.47;;;;;;;13.91;54.84;101425.72;4927604;29;20048;-71
2022/06/23 09:06:37;;;;;;;0.77;0.20;;;;;;;13.92;55.84;101437.00;4927325;28;20044;-70
2022/06/23 09:09:19;;;;;;;2.53;0.57;;;;;;;13.88;54.65;101430.84;4928294;29;20060;-71
2022/06/23 09:11:55;;;;;;;2.63;0.68;;;;;;;13.89;55.44;101434.31;4929848;29;20056;-70
2022/06/23 09:14:44;;;;;;;6.82;0.80;;;;;;;13.87;55.83;101438.59;4933216;29;20051;-71
2022/06/23 09:17:33;;;;;;;4.22;0.68;;;;;;;13.82;56.41;101428.06;4924745;29;20056;-71
2022/06/23 09:20:19;;;;;;;2.13;0.50;;;;;;;13.77;56.57;101440.09;4925835;29;20134;-71
2022/06/23 09:23:13;;;;;;;3.30;0.93;;;;;;;13.71;56.86;101442.50;4925003;29;20051;-71
2022/06/23 09:25:50;;;;;;;2.28;0.65;;;;;;;13.72;57.01;101454.66;4925766;29;20055;-71
2022/06/23 09:28:21;;;;;;;5.07;0.57;;;;;;;13.67;56.86;101448.47;4919987;29;20048;-71
2022/06/23 09:31:04;;;;;;;2.45;0.57;;;;;;;13.68;57.09;101450.25;4927110;29;20055;-70
2022/06/23 09:33:50;;;;;;;1.65;0.45;;;;;;;13.68;56.82;101452.84;4926862;29;20063;-71
2022/06/23 09:36:38;;;;;;;2.95;1.08;;;;;;;13.67;57.47;101448.47;4942751;29;20560;-71
2022/06/23 09:39:39;;;;;;;5.40;0.60;;;;;;;13.65;56.69;101448.41;4936898;29;20056;-71
2022/06/23 09:42:36;;;;;;;3.60;0.65;;;;;;;13.67;57.34;101454.53;4914720;29;20048;-71
2022/06/23 09:45:33;;;;;;;6.85;0.90;;;;;;;13.67;57.52;101451.94;4918727;29;20062;-71
2022/06/23 09:48:21;;;;;;;2.15;0.50;;;;;;;13.65;57.47;101450.13;4932460;29;20047;-70
2022/06/23 09:51:13;;;;;;;3.35;0.68;;;;;;;13.64;57.22;101445.78;4936994;29;20079;-70
2022/06/23 09:54:14;;;;;;;1.80;0.60;;;;;;;13.61;58.02;101455.25;4927894;29;20052;-70
2022/06/23 09:57:00;;;;;;;2.00;0.40;;;;;;;13.58;57.98;101451.66;4924613;29;20116;-70
2022/06/23 10:00:02;;;;;;;4.10;0.55;;;;;;;13.50;59.59;101459.25;4946031;29;20111;-70
2022/06/23 10:02:51;;;;;;;4.03;0.60;;;;;;;13.45;59.41;101457.38;4937056;29;20055;-70
2022/06/23 10:05:46;;;;;;;1.73;0.82;;;;;;;13.39;58.91;101455.47;4924579;29;20487;-70
2022/06/23 10:08:30;;;;;;;2.53;0.52;;;;;;;13.32;60.14;101463.94;4918744;29;20074;-72
2022/06/23 10:11:34;;;;;;;3.83;0.70;;;;;;;13.32;59.21;101458.72;4935309;29;20055;-71
2022/06/23 10:14:12;;;;;;;4.95;0.90;;;;;;;13.29;58.89;101462.13;4932718;29;20055;-71
2022/06/23 10:16:52;;;;;;;4.47;0.85;;;;;;;13.26;59.96;101463.69;4934575;29;20059;-71
2022/06/23 10:19:35;;;;;;;3.38;0.47;;;;;;;13.24;59.33;101465.38;4932189;29;20048;-73
2022/06/23 10:22:32;;;;;;;2.35;0.65;;;;;;;13.20;58.70;101470.50;4931191;29;20410;-71
2022/06/23 10:25:16;;;;;;;1.33;0.80;;;;;;;13.19;59.85;101462.63;4931974;29;20051;-71
2022/06/23 10:28:01;;;;;;;2.63;0.52;;;;;;;13.19;59.48;101460.94;4922969;29;20112;-70
2022/06/23 10:30:38;;;;;;;2.38;0.70;;;;;;;13.18;59.77;101472.16;4934419;29;20048;-71
2022/06/23 10:33:34;;;;;;;4.45;0.57;;;;;;;13.12;61.04;101465.88;4941261;29;20060;-71
2022/06/23 10:36:27;;;;;;;9.82;0.80;;;;;;;13.13;60.96;101465.94;4932596;29;20051;-70
2022/06/23 10:39:05;;;;;;;3.95;0.60;;;;;;;13.13;61.71;101465.94;4922893;29;20048;-71
2022/06/23 10:41:50;;;;;;;3.33;0.98;;;;;;;13.11;61.68;101458.94;4931579;29;20330;-71
2022/06/23 10:44:44;;;;;;;2.53;0.60;;;;;;;13.10;61.34;101462.34;4936829;29;20162;-71
2022/06/23 10:47:27;;;;;;;4.90;0.93;;;;;;;13.07;62.58;101460.56;4934747;29;20066;-71
2022/06/23 10:50:20;;;;;;;4.75;0.70;;;;;;;13.00;61.49;101466.41;4926335;29;20050;-71
2022/06/23 10:53:25;;;;;;;3.30;0.73;;;;;;;12.97;62.81;101467.19;4914243;29;20047;-72
2022/06/23 10:56:07;;;;;;;3.35;0.70;;;;;;;12.96;62.59;101467.13;4921101;29;20134;-72
2022/06/23 10:59:04;;;;;;;5.15;0.82;;;;;;;12.95;62.05;101462.78;4923721;29;20052;-72
2022/06/23 11:02:30;;;;;;;3.75;0.70;;;;;;;12.90;62.00;101472.16;4927319;29;20062;-72
2022/06/23 11:05:22;;;;;;;3.15;0.60;;;;;;;12.86;62.84;101472.88;4931858;29;20537;-72
2022/06/23 11:08:07;;;;;;;1.90;0.52;;;;;;;12.85;62.60;101476.31;4935704;28;20139;-72
2022/06/23 11:10:49;;;;;;;2.97;0.82;;;;;;;12.86;63.25;101483.28;4930511;29;20047;-71
2022/06/23 11:13:27;;;;;;;5.38;0.82;;;;;;;12.86;61.88;101478.09;4925980;29;20056;-71
2022/06/23 11:16:05;;;;;;;2.53;0.70;;;;;;;12.82;63.39;101478.81;4928023;29;20051;-73
2022/06/23 11:18:51;;;;;;;5.57;0.85;;;;;;;12.77;63.13;101483.84;4932137;28;21096;-71
2022/06/23 11:21:31;;;;;;;4.60;0.60;;;;;;;12.77;63.63;101478.66;4922205;29;20103;-71
2022/06/23 11:24:06;;;;;;;3.60;0.50;;;;;;;12.78;62.83;101483.00;4928688;29;20051;-72
2022/06/23 11:26:52;;;;;;;3.92;0.52;;;;;;;12.76;63.20;101482.09;4930863;29;20056;-72
2022/06/23 11:29:39;;;;;;;4.38;0.80;;;;;;;12.71;63.53;101478.47;4928886;29;20059;-73
2022/06/23 11:32:20;;;;;;;3.13;0.55;;;;;;;12.64;63.46;101472.19;4925736;29;20056;-71
2022/06/23 11:35:05;;;;;;;11.63;0.82;;;;;;;12.66;63.79;101478.31;4929641;29;20047;-71
2022/06/23 11:37:50;;;;;;;1.90;0.60;;;;;;;12.64;63.39;101485.16;4921982;29;20056;-71
2022/06/23 11:40:45;;;;;;;4.45;0.52;;;;;;;12.60;65.63;101488.50;4928923;29;20130;-71
2022/06/23 11:43:20;;;;;;;2.83;0.65;;;;;;;12.58;64.96;101480.66;4933267;29;20055;-71
2022/06/23 11:46:10;;;;;;;3.40;0.90;;;;;;;12.54;65.33;101480.50;4935097;29;20048;-70
2022/06/23 11:48:55;;;;;;;2.70;0.60;;;;;;;12.53;65.90;101489.16;4916063;29;20048;-71
2022/06/23 11:51:39;;;;;;;1.42;0.40;;;;;;;12.50;65.12;101486.44;4924261;29;20130;-72
2022/06/23 11:54:20;;;;;;;4.13;1.30;;;;;;;12.48;64.97;101482.91;4930876;29;20104;-71
2022/06/23 11:57:04;;;;;;;4.47;0.75;;;;;;;12.44;65.81;101489.72;4915737;29;20123;-72
2022/06/23 11:59:49;;;;;;;4.07;0.82;;;;;;;12.45;65.82;101490.59;4926665;29;20040;-72
2022/06/23 12:02:18;;;;;;;1.77;0.85;;;;;;;12.41;65.54;101491.31;4919293;29;20052;-71
2022/06/23 12:05:01;;;;;;;3.42;0.60;;;;;;;12.40;65.54;101486.97;4924667;29;20051;-71
2022/06/23 12:07:46;;;;;;;1.75;0.68;;;;;;;12.39;65.69;101491.25;4925762;28;20060;-71
2022/06/23 12:10:19;;;;;;;8.68;0.82;;;;;;;12.39;66.17;101500.75;4921447;29;20052;-71
2022/06/23 12:12:53;;;;;;;1.00;0.40;;;;;;;12.39;65.51;101511.13;4926905;29;20054;-71
2022/06/23 12:15:24;;;;;;;5.15;0.40;;;;;;;12.38;66.27;101511.97;4925536;29;20481;-72
2022/06/23 12:17:57;;;;;;;5.50;0.80;;;;;;;12.36;65.51;101504.13;4918584;29;20116;-71
2022/06/23 12:20:32;;;;;;;4.90;0.70;;;;;;;12.33;65.60;101504.91;4930153;29;20052;-72
2022/06/23 12:23:09;;;;;;;6.05;0.88;;;;;;;12.24;66.09;101490.75;4931792;29;20079;-73
2022/06/23 12:25:44;;;;;;;3.17;0.60;;;;;;;12.30;67.41;101497.03;4930751;29;20056;-73
2022/06/23 12:28:22;;;;;;;2.90;0.65;;;;;;;12.26;66.02;101502.94;4930174;29;20044;-72